Terminal Aerodrome Forecast
Issued by NWS

Home | Current Version | Previous Version | Text Only | Print | Product List | Glossary On
Versions: 1 2 3 4 5 6 7 8 9 10 11 12 13 14 15 16 17 18 19 20 21 22 23 24 25 26
000
FTUS41 KBOX 050535
TAFFMH
TAF
KFMH 050535Z 0506/0606 22015KT P6SM FEW250 WS020/24050KT
     FM051000 23013KT P6SM BKN090
     FM051300 28012KT P6SM BKN080
     FM051400 34011KT P6SM BKN080
     FM051700 03008KT P6SM BKN070
     FM052000 10008KT P6SM BKN150
     FM052300 14006KT P6SM SCT200=

USA.gov is the U.S. government's official web portal to all federal, state and local government web resources and services.